»·PEaware :: N811CM KPSP-KSBA

N811CM :: KPSP-KSBA

FLIGHT INFORMATION

Flight Status: Arrived
Operator: Privately registered:
United States
More flights under this callsign
Pilot: Joseph F. (7708)
Aircraft: BEECH AIRCRAFT BONANZA
(BE36)
More flights by this aircraft type
Origin: KPSP Palm Springs Intl
United States
Destination: KSBA Santa Barbara Mun
United States
More flights between these airports :: More routes between these airports
Route: +CATH1 PSP V388 PDZ V186 DEANO V27 KWANG
File this flight plan on PilotEdge
Remarks: TEC route PSPN16
Altitude:
(Current/Filed)
10,000ft
Speed:
(Current/Filed)
170kts
Departed: 16-Dec-17 09:18 AM
Arrived: 16-Dec-17 10:32 AM
Distance/Time
Traveled:
169nm/1:13
Distance/Time
To Go:
Arrived

Flight Plot

Page will automatically refresh every two minutes.

Flight plan parsing failed; only flown route is shown


Map Options




Map Legend


Flown Route
Filed Route
Departure Airport
Arrival Airport
Navaid (VOR, NDB)
Fix

Horizontal Profiles

Position Reports

Time Latitude Longitude Heading Altitude Ground
Speed
16-Dec-17 09:04 33.824003 -116.498919 55 480ft 0kts
16-Dec-17 09:08 33.824003 -116.498919 55 480ft 0kts
16-Dec-17 09:09 33.824003 -116.498919 55 480ft 0kts
16-Dec-17 09:10 33.824003 -116.498919 55 480ft 0kts
16-Dec-17 09:11 33.824003 -116.498919 55 480ft 0kts
16-Dec-17 09:12 33.824003 -116.498919 55 480ft 0kts
16-Dec-17 09:13 33.824003 -116.498919 55 480ft 0kts
16-Dec-17 09:14 33.824003 -116.498919 55 480ft 0kts
16-Dec-17 09:15 33.824003 -116.498919 55 480ft 0kts
16-Dec-17 09:16 33.824003 -116.498919 55 480ft 0kts
16-Dec-17 09:17 33.824003 -116.498919 55 480ft 0kts
16-Dec-17 09:18 33.824003 -116.498919 55 480ft 0kts
16-Dec-17 09:19 33.824003 -116.498919 55 480ft 0kts
16-Dec-17 09:20 33.824003 -116.498919 55 480ft 0kts
16-Dec-17 09:21 33.824003 -116.498919 55 480ft 0kts
16-Dec-17 09:22 33.824720 -116.499428 258 481ft 8kts
16-Dec-17 09:23 33.824611 -116.499644 231 480ft 0kts
16-Dec-17 09:24 33.830256 -116.504980 324 576ft 87kts
16-Dec-17 09:25 33.854051 -116.526769 322 1533ft 123kts
16-Dec-17 09:26 33.883272 -116.552158 341 2440ft 135kts
16-Dec-17 09:27 33.911996 -116.525845 86 3321ft 148kts
16-Dec-17 09:28 33.890378 -116.485487 119 4297ft 143kts
16-Dec-17 09:29 33.874439 -116.442208 110 5282ft 141kts
16-Dec-17 09:30 33.857586 -116.400053 118 6267ft 140kts
16-Dec-17 09:31 33.830242 -116.377345 219 7242ft 120kts
16-Dec-17 09:32 33.830109 -116.410699 291 8202ft 109kts
16-Dec-17 09:33 33.842133 -116.444137 291 9089ft 108kts
16-Dec-17 09:34 33.854041 -116.477238 291 9841ft 116kts
16-Dec-17 09:35 33.869192 -116.519060 292 9846ft 151kts
16-Dec-17 09:36 33.886554 -116.567030 292 9843ft 160kts
16-Dec-17 09:37 33.904409 -116.616499 292 9846ft 162kts
16-Dec-17 09:38 33.921032 -116.662679 291 9983ft 160kts
16-Dec-17 09:39 33.938920 -116.712443 292 9986ft 163kts
16-Dec-17 09:40 33.947750 -116.764573 269 9994ft 163kts
16-Dec-17 09:41 33.946094 -116.819264 269 10011ft 163kts
16-Dec-17 09:42 33.944258 -116.873893 269 10021ft 164kts
16-Dec-17 09:43 33.942372 -116.928894 269 10017ft 164kts
16-Dec-17 09:44 33.940380 -116.983718 269 9319ft 166kts
16-Dec-17 09:45 33.938416 -117.039014 269 8621ft 167kts
16-Dec-17 09:46 33.936440 -117.095012 270 8024ft 170kts
16-Dec-17 09:47 33.934410 -117.152225 269 8012ft 171kts
16-Dec-17 09:48 33.932030 -117.209533 268 8010ft 171kts
16-Dec-17 09:49 33.929568 -117.266583 268 8008ft 170kts
16-Dec-17 09:50 33.927080 -117.323478 267 8005ft 169kts
16-Dec-17 09:51 33.924698 -117.379886 267 8003ft 168kts
16-Dec-17 09:52 33.922440 -117.436098 266 8003ft 168kts
16-Dec-17 09:53 33.920123 -117.492341 265 8004ft 169kts
16-Dec-17 09:54 33.925122 -117.548205 289 8008ft 174kts
16-Dec-17 09:55 33.944173 -117.602595 289 8009ft 178kts
16-Dec-17 09:56 33.961873 -117.653551 295 8000ft 172kts
16-Dec-17 09:57 33.980588 -117.706008 294 7999ft 170kts
16-Dec-17 09:58 33.998968 -117.758196 294 8000ft 169kts
16-Dec-17 09:59 34.015425 -117.811012 292 8003ft 169kts
16-Dec-17 10:00 34.031752 -117.863783 291 8007ft 169kts
16-Dec-17 10:01 34.047810 -117.915815 291 8024ft 169kts
16-Dec-17 10:02 34.064138 -117.968833 291 8022ft 169kts
16-Dec-17 10:03 34.080424 -118.021799 291 8017ft 169kts
16-Dec-17 10:04 34.096792 -118.075153 291 8010ft 170kts
16-Dec-17 10:05 34.112150 -118.125306 291 8006ft 170kts
16-Dec-17 10:06 34.128475 -118.178694 291 8002ft 169kts
16-Dec-17 10:07 34.144579 -118.231452 291 7998ft 169kts
16-Dec-17 10:08 34.161099 -118.285650 291 7996ft 176kts
16-Dec-17 10:09 34.178038 -118.341336 291 7990ft 178kts
16-Dec-17 10:10 34.195051 -118.397403 291 7989ft 178kts
16-Dec-17 10:11 34.212099 -118.453662 292 7987ft 178kts
16-Dec-17 10:12 34.228853 -118.506919 294 7985ft 178kts
16-Dec-17 10:13 34.247833 -118.562172 294 7983ft 178kts
16-Dec-17 10:14 34.266824 -118.617459 294 7986ft 178kts
16-Dec-17 10:15 34.285148 -118.670969 294 7987ft 178kts
16-Dec-17 10:16 34.304094 -118.726409 293 7986ft 178kts
16-Dec-17 10:17 34.326008 -118.780901 302 7457ft 180kts
16-Dec-17 10:18 34.340706 -118.838284 279 6851ft 180kts
16-Dec-17 10:19 34.338858 -118.899050 269 6249ft 180kts
16-Dec-17 10:20 34.336139 -118.959746 270 5982ft 182kts
16-Dec-17 10:21 34.333318 -119.020286 270 5982ft 182kts
16-Dec-17 10:22 34.330461 -119.081603 271 5982ft 183kts
16-Dec-17 10:23 34.327559 -119.143030 271 5982ft 184kts
16-Dec-17 10:24 34.324593 -119.204787 271 5990ft 184kts
16-Dec-17 10:25 34.326911 -119.265996 282 5991ft 182kts
16-Dec-17 10:26 34.333614 -119.326613 282 5991ft 182kts
16-Dec-17 10:27 34.340423 -119.387086 282 5991ft 181kts
16-Dec-17 10:28 34.349680 -119.445910 291 5496ft 167kts
16-Dec-17 10:29 34.363017 -119.495035 293 4871ft 146kts
16-Dec-17 10:30 34.377346 -119.542452 293 4362ft 153kts
16-Dec-17 10:31 34.393024 -119.591101 295 3870ft 158kts
16-Dec-17 10:32 34.410625 -119.638740 296 3360ft 146kts
16-Dec-17 10:33 34.422222 -119.681100 285 2860ft 127kts
16-Dec-17 10:34 34.429942 -119.722034 278 2430ft 125kts
16-Dec-17 10:35 34.430235 -119.760696 268 1876ft 94kts
16-Dec-17 10:36 34.428827 -119.790757 266 1150ft 87kts
16-Dec-17 10:37 34.428261 -119.819788 269 381ft 85kts
16-Dec-17 10:38 34.428155 -119.841782 341 17ft 11kts
16-Dec-17 10:39 34.428494 -119.841901 347 17ft 1kts
16-Dec-17 10:40 34.430271 -119.840896 66 16ft 12kts
16-Dec-17 10:41 34.431466 -119.837205 71 17ft 14kts
16-Dec-17 10:42 34.432647 -119.836219 338 17ft 0kts

Navigation Log

Ident Type
Flight plan parsing failed, navigation log unavailable